sensor_id;sensor_type;location;lat;lon;timestamp;temperature;humidity
51029;DHT22;37054;52.054;8.600;2023-02-28T00:02:18;2.60;46.90
51029;DHT22;37054;52.054;8.600;2023-02-28T00:04:46;2.60;46.90
51029;DHT22;37054;52.054;8.600;2023-02-28T00:07:29;2.60;47.00
51029;DHT22;37054;52.054;8.600;2023-02-28T00:09:54;2.70;47.20
51029;DHT22;37054;52.054;8.600;2023-02-28T00:12:20;2.70;47.20
51029;DHT22;37054;52.054;8.600;2023-02-28T00:14:46;2.80;47.30
51029;DHT22;37054;52.054;8.600;2023-02-28T00:17:12;2.90;47.20
51029;DHT22;37054;52.054;8.600;2023-02-28T00:19:37;2.90;47.20
51029;DHT22;37054;52.054;8.600;2023-02-28T00:22:03;3.00;47.30
51029;DHT22;37054;52.054;8.600;2023-02-28T00:24:32;3.00;47.40
51029;DHT22;37054;52.054;8.600;2023-02-28T00:26:58;3.10;47.30
51029;DHT22;37054;52.054;8.600;2023-02-28T00:29:23;3.10;47.30
51029;DHT22;37054;52.054;8.600;2023-02-28T00:31:51;3.10;47.40
51029;DHT22;37054;52.054;8.600;2023-02-28T00:34:17;3.10;47.20
51029;DHT22;37054;52.054;8.600;2023-02-28T00:36:42;3.10;47.20
51029;DHT22;37054;52.054;8.600;2023-02-28T00:39:10;3.20;47.20
51029;DHT22;37054;52.054;8.600;2023-02-28T00:41:36;3.20;47.30
51029;DHT22;37054;52.054;8.600;2023-02-28T00:44:02;3.20;47.40
51029;DHT22;37054;52.054;8.600;2023-02-28T00:46:27;3.20;47.30
51029;DHT22;37054;52.054;8.600;2023-02-28T00:48:53;3.20;47.40
51029;DHT22;37054;52.054;8.600;2023-02-28T00:51:19;3.20;47.40
51029;DHT22;37054;52.054;8.600;2023-02-28T00:53:46;3.20;47.40
51029;DHT22;37054;52.054;8.600;2023-02-28T00:56:12;3.20;47.40
51029;DHT22;37054;52.054;8.600;2023-02-28T00:58:39;3.10;47.50
51029;DHT22;37054;52.054;8.600;2023-02-28T01:01:04;3.10;47.50
51029;DHT22;37054;52.054;8.600;2023-02-28T01:03:30;3.00;47.50
51029;DHT22;37054;52.054;8.600;2023-02-28T01:05:56;3.00;47.40
51029;DHT22;37054;52.054;8.600;2023-02-28T01:08:22;2.90;47.40
51029;DHT22;37054;52.054;8.600;2023-02-28T01:10:48;2.80;47.30
51029;DHT22;37054;52.054;8.600;2023-02-28T01:13:15;2.80;47.40
51029;DHT22;37054;52.054;8.600;2023-02-28T01:15:43;2.70;47.50
51029;DHT22;37054;52.054;8.600;2023-02-28T01:18:10;2.70;47.40
51029;DHT22;37054;52.054;8.600;2023-02-28T01:20:38;2.60;47.40
51029;DHT22;37054;52.054;8.600;2023-02-28T01:23:04;2.60;47.40
51029;DHT22;37054;52.054;8.600;2023-02-28T01:25:29;2.50;47.90
51029;DHT22;37054;52.054;8.600;2023-02-28T01:27:55;2.50;48.20
51029;DHT22;37054;52.054;8.600;2023-02-28T01:30:21;2.40;48.10
51029;DHT22;37054;52.054;8.600;2023-02-28T01:32:46;2.40;47.90
51029;DHT22;37054;52.054;8.600;2023-02-28T01:35:12;2.30;47.80
51029;DHT22;37054;52.054;8.600;2023-02-28T01:37:38;2.30;47.70
51029;DHT22;37054;52.054;8.600;2023-02-28T01:40:03;2.20;47.60
51029;DHT22;37054;52.054;8.600;2023-02-28T01:42:29;2.10;47.60
51029;DHT22;37054;52.054;8.600;2023-02-28T01:45:03;2.10;47.70
51029;DHT22;37054;52.054;8.600;2023-02-28T01:47:31;2.00;47.70
51029;DHT22;37054;52.054;8.600;2023-02-28T01:49:58;2.00;47.80
51029;DHT22;37054;52.054;8.600;2023-02-28T01:52:25;1.90;47.80
51029;DHT22;37054;52.054;8.600;2023-02-28T01:54:52;1.90;47.80
51029;DHT22;37054;52.054;8.600;2023-02-28T01:57:21;1.80;48.10
51029;DHT22;37054;52.054;8.600;2023-02-28T01:59:48;1.80;48.40
51029;DHT22;37054;52.054;8.600;2023-02-28T02:02:16;1.80;48.50
51029;DHT22;37054;52.054;8.600;2023-02-28T02:05:05;1.80;48.60
51029;DHT22;37054;52.054;8.600;2023-02-28T02:07:32;1.80;48.70
51029;DHT22;37054;52.054;8.600;2023-02-28T02:10:03;1.80;48.60
51029;DHT22;37054;52.054;8.600;2023-02-28T02:15:13;1.80;48.60
51029;DHT22;37054;52.054;8.600;2023-02-28T02:17:51;1.80;48.60
51029;DHT22;37054;52.054;8.600;2023-02-28T02:20:32;1.80;48.50
51029;DHT22;37054;52.054;8.600;2023-02-28T02:23:12;1.80;48.60
51029;DHT22;37054;52.054;8.600;2023-02-28T02:25:45;1.90;48.60
51029;DHT22;37054;52.054;8.600;2023-02-28T02:28:20;1.90;48.50
51029;DHT22;37054;52.054;8.600;2023-02-28T02:31:03;1.90;48.50
51029;DHT22;37054;52.054;8.600;2023-02-28T02:36:25;1.90;48.50
51029;DHT22;37054;52.054;8.600;2023-02-28T02:41:28;1.90;48.60
51029;DHT22;37054;52.054;8.600;2023-02-28T02:44:01;1.90;48.60
51029;DHT22;37054;52.054;8.600;2023-02-28T02:48:56;1.90;49.60
51029;DHT22;37054;52.054;8.600;2023-02-28T02:51:24;1.80;49.20
51029;DHT22;37054;52.054;8.600;2023-02-28T02:53:52;1.80;48.90
51029;DHT22;37054;52.054;8.600;2023-02-28T02:56:20;1.80;48.70
51029;DHT22;37054;52.054;8.600;2023-02-28T02:59:09;1.70;48.60
51029;DHT22;37054;52.054;8.600;2023-02-28T03:01:36;1.60;48.50
51029;DHT22;37054;52.054;8.600;2023-02-28T03:04:09;1.60;48.60
51029;DHT22;37054;52.054;8.600;2023-02-28T03:06:35;1.50;48.80
51029;DHT22;37054;52.054;8.600;2023-02-28T03:09:01;1.40;48.70
51029;DHT22;37054;52.054;8.600;2023-02-28T03:11:27;1.40;48.70
51029;DHT22;37054;52.054;8.600;2023-02-28T03:14:03;1.40;48.70
51029;DHT22;37054;52.054;8.600;2023-02-28T03:19:34;1.20;48.80
51029;DHT22;37054;52.054;8.600;2023-02-28T03:22:29;1.20;48.70
51029;DHT22;37054;52.054;8.600;2023-02-28T03:24:50;1.20;48.60
51029;DHT22;37054;52.054;8.600;2023-02-28T03:27:23;1.10;48.60
51029;DHT22;37054;52.054;8.600;2023-02-28T03:32:24;1.10;48.60
51029;DHT22;37054;52.054;8.600;2023-02-28T03:34:56;1.00;48.60
51029;DHT22;37054;52.054;8.600;2023-02-28T03:37:23;1.00;48.70
51029;DHT22;37054;52.054;8.600;2023-02-28T03:39:55;0.90;48.60
51029;DHT22;37054;52.054;8.600;2023-02-28T03:42:22;0.90;48.60
51029;DHT22;37054;52.054;8.600;2023-02-28T03:44:50;0.80;48.60
51029;DHT22;37054;52.054;8.600;2023-02-28T03:47:17;0.80;48.60
51029;DHT22;37054;52.054;8.600;2023-02-28T03:49:49;0.70;48.60
51029;DHT22;37054;52.054;8.600;2023-02-28T03:52:16;0.70;48.60
51029;DHT22;37054;52.054;8.600;2023-02-28T03:54:48;0.70;48.60
51029;DHT22;37054;52.054;8.600;2023-02-28T03:57:20;0.70;48.60
51029;DHT22;37054;52.054;8.600;2023-02-28T03:59:49;0.60;48.60
51029;DHT22;37054;52.054;8.600;2023-02-28T04:02:18;0.60;48.70
51029;DHT22;37054;52.054;8.600;2023-02-28T04:04:44;0.60;48.60
51029;DHT22;37054;52.054;8.600;2023-02-28T04:07:13;0.50;48.60
51029;DHT22;37054;52.054;8.600;2023-02-28T04:09:39;0.50;48.70
51029;DHT22;37054;52.054;8.600;2023-02-28T04:12:05;0.50;48.70
51029;DHT22;37054;52.054;8.600;2023-02-28T04:14:30;0.40;48.70
51029;DHT22;37054;52.054;8.600;2023-02-28T04:16:56;0.40;48.70
51029;DHT22;37054;52.054;8.600;2023-02-28T04:19:22;0.40;48.70
51029;DHT22;37054;52.054;8.600;2023-02-28T04:21:48;0.40;48.70
51029;DHT22;37054;52.054;8.600;2023-02-28T04:24:17;0.40;48.70
51029;DHT22;37054;52.054;8.600;2023-02-28T04:26:44;0.40;48.70
51029;DHT22;37054;52.054;8.600;2023-02-28T04:29:11;0.40;49.20
51029;DHT22;37054;52.054;8.600;2023-02-28T04:31:37;0.40;49.30
51029;DHT22;37054;52.054;8.600;2023-02-28T04:34:02;0.40;49.60
51029;DHT22;37054;52.054;8.600;2023-02-28T04:36:28;0.50;49.70
51029;DHT22;37054;52.054;8.600;2023-02-28T04:38:54;0.50;49.60
51029;DHT22;37054;52.054;8.600;2023-02-28T04:41:20;0.50;49.50
51029;DHT22;37054;52.054;8.600;2023-02-28T04:43:45;0.50;49.40
51029;DHT22;37054;52.054;8.600;2023-02-28T04:46:11;0.50;49.60
51029;DHT22;37054;52.054;8.600;2023-02-28T04:48:37;0.50;49.70
51029;DHT22;37054;52.054;8.600;2023-02-28T04:51:04;0.50;50.20
51029;DHT22;37054;52.054;8.600;2023-02-28T04:53:30;0.60;49.90
51029;DHT22;37054;52.054;8.600;2023-02-28T04:55:56;0.60;49.60
51029;DHT22;37054;52.054;8.600;2023-02-28T04:58:22;0.50;49.50
51029;DHT22;37054;52.054;8.600;2023-02-28T05:00:52;0.60;49.40
51029;DHT22;37054;52.054;8.600;2023-02-28T05:03:18;0.50;49.30
51029;DHT22;37054;52.054;8.600;2023-02-28T05:05:44;0.50;49.30
51029;DHT22;37054;52.054;8.600;2023-02-28T05:08:10;0.40;49.20
51029;DHT22;37054;52.054;8.600;2023-02-28T05:10:36;0.40;49.10
51029;DHT22;37054;52.054;8.600;2023-02-28T05:13:03;0.40;49.00
51029;DHT22;37054;52.054;8.600;2023-02-28T05:15:31;0.30;49.00
51029;DHT22;37054;52.054;8.600;2023-02-28T05:17:56;0.30;48.90
51029;DHT22;37054;52.054;8.600;2023-02-28T05:20:22;0.30;48.90
51029;DHT22;37054;52.054;8.600;2023-02-28T05:22:47;0.20;48.80
51029;DHT22;37054;52.054;8.600;2023-02-28T05:25:17;0.10;48.70
51029;DHT22;37054;52.054;8.600;2023-02-28T05:27:43;0.10;48.70
51029;DHT22;37054;52.054;8.600;2023-02-28T05:30:09;0.10;48.60
51029;DHT22;37054;52.054;8.600;2023-02-28T05:32:39;0.00;48.70
51029;DHT22;37054;52.054;8.600;2023-02-28T05:35:08;0.00;48.70
51029;DHT22;37054;52.054;8.600;2023-02-28T05:37:34;0.00;48.70
51029;DHT22;37054;52.054;8.600;2023-02-28T05:39:59;0.00;48.70
51029;DHT22;37054;52.054;8.600;2023-02-28T05:42:25;0.00;48.70
51029;DHT22;37054;52.054;8.600;2023-02-28T05:44:51;-3276.70;48.70
51029;DHT22;37054;52.054;8.600;2023-02-28T05:47:17;-3276.70;48.70
51029;DHT22;37054;52.054;8.600;2023-02-28T05:49:43;-3276.70;48.70
51029;DHT22;37054;52.054;8.600;2023-02-28T05:52:08;-3276.70;48.70
51029;DHT22;37054;52.054;8.600;2023-02-28T05:54:34;-3276.60;48.70
51029;DHT22;37054;52.054;8.600;2023-02-28T05:57:00;-3276.60;48.70
51029;DHT22;37054;52.054;8.600;2023-02-28T05:59:26;-3276.60;48.70
51029;DHT22;37054;52.054;8.600;2023-02-28T06:01:52;-3276.60;48.70
51029;DHT22;37054;52.054;8.600;2023-02-28T06:04:24;-3276.60;48.80
51029;DHT22;37054;52.054;8.600;2023-02-28T06:06:50;-3276.60;48.80
51029;DHT22;37054;52.054;8.600;2023-02-28T06:09:16;-3276.60;48.90
51029;DHT22;37054;52.054;8.600;2023-02-28T06:11:41;-3276.60;48.90
51029;DHT22;37054;52.054;8.600;2023-02-28T06:14:07;-3276.50;48.90
51029;DHT22;37054;52.054;8.600;2023-02-28T06:16:37;-3276.50;48.90
51029;DHT22;37054;52.054;8.600;2023-02-28T06:19:03;-3276.50;49.00
51029;DHT22;37054;52.054;8.600;2023-02-28T06:21:29;-3276.50;49.00
51029;DHT22;37054;52.054;8.600;2023-02-28T06:23:55;-3276.50;49.10
51029;DHT22;37054;52.054;8.600;2023-02-28T06:26:21;-3276.50;49.20
51029;DHT22;37054;52.054;8.600;2023-02-28T06:28:47;-3276.60;49.60
51029;DHT22;37054;52.054;8.600;2023-02-28T06:31:14;-3276.70;49.80
51029;DHT22;37054;52.054;8.600;2023-02-28T06:33:40;-3276.70;49.80
51029;DHT22;37054;52.054;8.600;2023-02-28T06:36:06;0.00;49.60
51029;DHT22;37054;52.054;8.600;2023-02-28T06:38:32;0.00;50.10
51029;DHT22;37054;52.054;8.600;2023-02-28T06:40:58;0.20;50.90
51029;DHT22;37054;52.054;8.600;2023-02-28T06:43:25;0.50;52.20
51029;DHT22;37054;52.054;8.600;2023-02-28T06:45:53;0.90;53.10
51029;DHT22;37054;52.054;8.600;2023-02-28T06:48:19;1.40;53.90
51029;DHT22;37054;52.054;8.600;2023-02-28T06:50:45;1.90;54.50
51029;DHT22;37054;52.054;8.600;2023-02-28T06:53:10;2.40;54.80
51029;DHT22;37054;52.054;8.600;2023-02-28T06:55:39;3.00;55.00
51029;DHT22;37054;52.054;8.600;2023-02-28T06:58:07;3.50;55.10
51029;DHT22;37054;52.054;8.600;2023-02-28T07:09:56;5.80;55.40
51029;DHT22;37054;52.054;8.600;2023-02-28T07:28:50;9.60;56.90
51029;DHT22;37054;52.054;8.600;2023-02-28T07:34:39;10.60;57.00
51029;DHT22;37054;52.054;8.600;2023-02-28T07:40:15;11.70;57.00
51029;DHT22;37054;52.054;8.600;2023-02-28T07:42:43;12.20;57.10
51029;DHT22;37054;52.054;8.600;2023-02-28T07:45:09;12.70;57.00
51029;DHT22;37054;52.054;8.600;2023-02-28T07:47:42;13.00;56.90
51029;DHT22;37054;52.054;8.600;2023-02-28T07:50:13;13.40;56.80
51029;DHT22;37054;52.054;8.600;2023-02-28T07:52:41;13.60;57.00
51029;DHT22;37054;52.054;8.600;2023-02-28T07:55:08;13.80;57.90
51029;DHT22;37054;52.054;8.600;2023-02-28T07:57:34;14.30;59.00
51029;DHT22;37054;52.054;8.600;2023-02-28T08:00:03;14.60;59.50
51029;DHT22;37054;52.054;8.600;2023-02-28T08:02:29;15.00;59.20
51029;DHT22;37054;52.054;8.600;2023-02-28T08:04:55;15.40;58.70
51029;DHT22;37054;52.054;8.600;2023-02-28T08:07:21;15.80;57.80
51029;DHT22;37054;52.054;8.600;2023-02-28T08:10:05;16.20;57.50
51029;DHT22;37054;52.054;8.600;2023-02-28T08:14:57;16.80;56.60
51029;DHT22;37054;52.054;8.600;2023-02-28T08:17:22;17.10;55.80
51029;DHT22;37054;52.054;8.600;2023-02-28T08:19:48;17.40;56.20
51029;DHT22;37054;52.054;8.600;2023-02-28T08:22:14;17.80;56.90
51029;DHT22;37054;52.054;8.600;2023-02-28T08:24:46;18.10;57.00
51029;DHT22;37054;52.054;8.600;2023-02-28T08:27:11;18.40;57.00
51029;DHT22;37054;52.054;8.600;2023-02-28T08:29:38;18.70;55.50
51029;DHT22;37054;52.054;8.600;2023-02-28T08:32:09;18.90;53.90
51029;DHT22;37054;52.054;8.600;2023-02-28T08:34:35;19.00;52.60
51029;DHT22;37054;52.054;8.600;2023-02-28T08:37:03;19.10;52.30
51029;DHT22;37054;52.054;8.600;2023-02-28T08:39:29;19.30;52.20
51029;DHT22;37054;52.054;8.600;2023-02-28T08:41:54;19.40;52.40
51029;DHT22;37054;52.054;8.600;2023-02-28T08:44:22;19.60;52.20
51029;DHT22;37054;52.054;8.600;2023-02-28T08:46:48;19.80;52.10
51029;DHT22;37054;52.054;8.600;2023-02-28T08:49:14;20.00;52.40
51029;DHT22;37054;52.054;8.600;2023-02-28T08:51:41;20.30;52.40
51029;DHT22;37054;52.054;8.600;2023-02-28T08:54:07;20.40;50.90
51029;DHT22;37054;52.054;8.600;2023-02-28T08:56:33;20.60;50.70
51029;DHT22;37054;52.054;8.600;2023-02-28T08:59:04;20.80;51.10
51029;DHT22;37054;52.054;8.600;2023-02-28T09:01:40;21.00;50.60
51029;DHT22;37054;52.054;8.600;2023-02-28T09:04:09;21.20;51.70
51029;DHT22;37054;52.054;8.600;2023-02-28T09:06:45;21.40;52.10
51029;DHT22;37054;52.054;8.600;2023-02-28T09:09:13;21.50;51.40
51029;DHT22;37054;52.054;8.600;2023-02-28T09:11:39;21.70;52.40
51029;DHT22;37054;52.054;8.600;2023-02-28T09:14:05;21.80;52.40
51029;DHT22;37054;52.054;8.600;2023-02-28T09:16:31;21.90;52.10
51029;DHT22;37054;52.054;8.600;2023-02-28T09:18:57;22.10;50.90
51029;DHT22;37054;52.054;8.600;2023-02-28T09:21:25;22.30;51.70
51029;DHT22;37054;52.054;8.600;2023-02-28T09:23:51;22.40;51.60
51029;DHT22;37054;52.054;8.600;2023-02-28T09:26:17;22.60;51.00
51029;DHT22;37054;52.054;8.600;2023-02-28T09:28:44;22.70;50.50
51029;DHT22;37054;52.054;8.600;2023-02-28T09:31:15;22.90;47.90
51029;DHT22;37054;52.054;8.600;2023-02-28T09:33:54;22.90;46.90
51029;DHT22;37054;52.054;8.600;2023-02-28T09:36:23;22.80;45.80
51029;DHT22;37054;52.054;8.600;2023-02-28T09:38:51;22.40;43.20
51029;DHT22;37054;52.054;8.600;2023-02-28T09:41:22;21.90;43.20
51029;DHT22;37054;52.054;8.600;2023-02-28T09:43:59;21.30;41.80
51029;DHT22;37054;52.054;8.600;2023-02-28T09:48:53;19.90;41.90
51029;DHT22;37054;52.054;8.600;2023-02-28T09:51:26;19.60;41.00
51029;DHT22;37054;52.054;8.600;2023-02-28T09:53:53;19.40;41.10
51029;DHT22;37054;52.054;8.600;2023-02-28T09:56:27;19.20;40.70
51029;DHT22;37054;52.054;8.600;2023-02-28T09:59:02;19.20;42.70
51029;DHT22;37054;52.054;8.600;2023-02-28T10:01:42;19.30;41.80
51029;DHT22;37054;52.054;8.600;2023-02-28T10:04:12;19.40;41.50
51029;DHT22;37054;52.054;8.600;2023-02-28T10:06:41;19.40;40.60
51029;DHT22;37054;52.054;8.600;2023-02-28T10:09:21;19.40;41.70
51029;DHT22;37054;52.054;8.600;2023-02-28T10:11:50;19.50;39.70
51029;DHT22;37054;52.054;8.600;2023-02-28T10:14:18;19.40;38.40
51029;DHT22;37054;52.054;8.600;2023-02-28T10:16:50;19.20;36.80
51029;DHT22;37054;52.054;8.600;2023-02-28T10:19:30;19.10;36.20
51029;DHT22;37054;52.054;8.600;2023-02-28T10:22:20;18.80;34.60
51029;DHT22;37054;52.054;8.600;2023-02-28T10:24:50;18.60;33.10
51029;DHT22;37054;52.054;8.600;2023-02-28T10:29:53;18.20;32.70
51029;DHT22;37054;52.054;8.600;2023-02-28T10:32:20;18.10;32.10
51029;DHT22;37054;52.054;8.600;2023-02-28T10:34:53;17.80;33.00
51029;DHT22;37054;52.054;8.600;2023-02-28T10:37:22;17.70;33.00
51029;DHT22;37054;52.054;8.600;2023-02-28T10:39:48;17.80;32.50
51029;DHT22;37054;52.054;8.600;2023-02-28T10:42:31;17.90;30.90
51029;DHT22;37054;52.054;8.600;2023-02-28T10:45:06;18.00;30.30
51029;DHT22;37054;52.054;8.600;2023-02-28T10:47:33;17.90;28.50
51029;DHT22;37054;52.054;8.600;2023-02-28T10:49:59;17.90;29.40
51029;DHT22;37054;52.054;8.600;2023-02-28T10:52:38;17.80;28.90
51029;DHT22;37054;52.054;8.600;2023-02-28T10:57:59;16.60;27.50
51029;DHT22;37054;52.054;8.600;2023-02-28T11:00:25;16.10;28.10
51029;DHT22;37054;52.054;8.600;2023-02-28T11:02:56;15.50;28.40
51029;DHT22;37054;52.054;8.600;2023-02-28T11:05:24;15.10;28.20
51029;DHT22;37054;52.054;8.600;2023-02-28T11:07:51;15.20;29.50
51029;DHT22;37054;52.054;8.600;2023-02-28T11:10:19;15.70;30.00
51029;DHT22;37054;52.054;8.600;2023-02-28T11:12:48;16.00;29.40
51029;DHT22;37054;52.054;8.600;2023-02-28T11:15:26;16.20;27.60
51029;DHT22;37054;52.054;8.600;2023-02-28T11:17:55;16.30;27.30
51029;DHT22;37054;52.054;8.600;2023-02-28T11:20:30;16.50;27.20
51029;DHT22;37054;52.054;8.600;2023-02-28T11:22:57;16.60;26.20
51029;DHT22;37054;52.054;8.600;2023-02-28T11:27:50;16.60;25.10
51029;DHT22;37054;52.054;8.600;2023-02-28T11:30:26;16.60;25.80
51029;DHT22;37054;52.054;8.600;2023-02-28T11:32:55;16.60;25.30
51029;DHT22;37054;52.054;8.600;2023-02-28T11:35:24;16.70;26.10
51029;DHT22;37054;52.054;8.600;2023-02-28T11:37:52;16.80;25.90
51029;DHT22;37054;52.054;8.600;2023-02-28T11:40:39;16.90;25.80
51029;DHT22;37054;52.054;8.600;2023-02-28T11:43:09;17.10;25.40
51029;DHT22;37054;52.054;8.600;2023-02-28T11:45:46;17.20;25.80
51029;DHT22;37054;52.054;8.600;2023-02-28T11:48:27;17.40;25.30
51029;DHT22;37054;52.054;8.600;2023-02-28T11:58:42;17.10;24.60
51029;DHT22;37054;52.054;8.600;2023-02-28T12:03:56;17.00;25.10
51029;DHT22;37054;52.054;8.600;2023-02-28T12:09:08;17.00;24.40
51029;DHT22;37054;52.054;8.600;2023-02-28T12:11:40;17.00;25.00
51029;DHT22;37054;52.054;8.600;2023-02-28T12:14:41;17.10;25.30
51029;DHT22;37054;52.054;8.600;2023-02-28T12:17:09;17.20;25.30
51029;DHT22;37054;52.054;8.600;2023-02-28T12:19:43;17.30;24.90
51029;DHT22;37054;52.054;8.600;2023-02-28T12:22:27;17.30;24.40
51029;DHT22;37054;52.054;8.600;2023-02-28T12:27:39;17.40;25.00
51029;DHT22;37054;52.054;8.600;2023-02-28T12:30:08;17.50;24.60
51029;DHT22;37054;52.054;8.600;2023-02-28T12:32:39;17.40;24.60
51029;DHT22;37054;52.054;8.600;2023-02-28T12:37:42;17.40;24.30
51029;DHT22;37054;52.054;8.600;2023-02-28T12:40:12;17.40;24.30
51029;DHT22;37054;52.054;8.600;2023-02-28T12:42:40;17.50;24.70
51029;DHT22;37054;52.054;8.600;2023-02-28T12:47:38;17.40;24.30
51029;DHT22;37054;52.054;8.600;2023-02-28T12:50:07;17.30;23.90
51029;DHT22;37054;52.054;8.600;2023-02-28T12:55:12;17.10;24.20
51029;DHT22;37054;52.054;8.600;2023-02-28T12:57:41;16.80;24.60
51029;DHT22;37054;52.054;8.600;2023-02-28T13:00:11;16.70;24.60
51029;DHT22;37054;52.054;8.600;2023-02-28T13:05:14;16.20;24.70
51029;DHT22;37054;52.054;8.600;2023-02-28T13:08:04;15.90;24.70
51029;DHT22;37054;52.054;8.600;2023-02-28T13:13:04;14.80;25.60
51029;DHT22;37054;52.054;8.600;2023-02-28T13:15:30;14.30;26.20
51029;DHT22;37054;52.054;8.600;2023-02-28T13:18:00;13.90;26.80
51029;DHT22;37054;52.054;8.600;2023-02-28T13:20:33;13.50;27.40
51029;DHT22;37054;52.054;8.600;2023-02-28T13:22:59;13.20;27.90
51029;DHT22;37054;52.054;8.600;2023-02-28T13:27:58;12.60;28.80
51029;DHT22;37054;52.054;8.600;2023-02-28T13:36:08;12.10;29.20
51029;DHT22;37054;52.054;8.600;2023-02-28T13:38:34;11.90;29.70
51029;DHT22;37054;52.054;8.600;2023-02-28T13:46:26;11.70;30.10
51029;DHT22;37054;52.054;8.600;2023-02-28T13:48:52;11.70;30.50
51029;DHT22;37054;52.054;8.600;2023-02-28T13:54:10;11.50;30.80
51029;DHT22;37054;52.054;8.600;2023-02-28T13:56:47;11.50;31.20
51029;DHT22;37054;52.054;8.600;2023-02-28T13:59:18;11.40;31.20
51029;DHT22;37054;52.054;8.600;2023-02-28T14:01:48;11.30;31.20
51029;DHT22;37054;52.054;8.600;2023-02-28T14:06:53;11.10;31.30
51029;DHT22;37054;52.054;8.600;2023-02-28T14:11:51;11.10;31.60
51029;DHT22;37054;52.054;8.600;2023-02-28T14:17:02;11.10;31.60
51029;DHT22;37054;52.054;8.600;2023-02-28T14:19:29;11.00;31.70
51029;DHT22;37054;52.054;8.600;2023-02-28T14:24:31;11.00;32.10
51029;DHT22;37054;52.054;8.600;2023-02-28T14:35:11;11.00;32.50
51029;DHT22;37054;52.054;8.600;2023-02-28T14:37:39;11.00;32.70
51029;DHT22;37054;52.054;8.600;2023-02-28T14:40:16;10.90;33.00
51029;DHT22;37054;52.054;8.600;2023-02-28T14:42:46;10.80;32.60
51029;DHT22;37054;52.054;8.600;2023-02-28T14:45:19;10.80;32.80
51029;DHT22;37054;52.054;8.600;2023-02-28T14:47:45;10.80;33.10
51029;DHT22;37054;52.054;8.600;2023-02-28T14:50:18;10.80;33.30
51029;DHT22;37054;52.054;8.600;2023-02-28T14:52:44;10.80;33.50
51029;DHT22;37054;52.054;8.600;2023-02-28T14:55:12;10.80;33.50
51029;DHT22;37054;52.054;8.600;2023-02-28T14:57:40;10.80;33.50
51029;DHT22;37054;52.054;8.600;2023-02-28T15:02:38;10.80;33.80
51029;DHT22;37054;52.054;8.600;2023-02-28T15:05:16;10.80;33.70
51029;DHT22;37054;52.054;8.600;2023-02-28T15:07:44;10.70;34.00
51029;DHT22;37054;52.054;8.600;2023-02-28T15:12:36;10.70;34.10
51029;DHT22;37054;52.054;8.600;2023-02-28T15:15:02;10.70;34.40
51029;DHT22;37054;52.054;8.600;2023-02-28T15:17:27;10.70;34.40
51029;DHT22;37054;52.054;8.600;2023-02-28T15:19:56;10.60;34.40
51029;DHT22;37054;52.054;8.600;2023-02-28T15:22:26;10.70;34.40
51029;DHT22;37054;52.054;8.600;2023-02-28T15:24:54;10.60;34.30
51029;DHT22;37054;52.054;8.600;2023-02-28T15:27:21;10.60;34.40
51029;DHT22;37054;52.054;8.600;2023-02-28T15:29:48;10.50;34.30
51029;DHT22;37054;52.054;8.600;2023-02-28T15:32:35;10.50;34.40
51029;DHT22;37054;52.054;8.600;2023-02-28T15:37:46;10.50;34.60
51029;DHT22;37054;52.054;8.600;2023-02-28T15:40:32;10.40;34.80
51029;DHT22;37054;52.054;8.600;2023-02-28T15:43:12;10.40;35.00
51029;DHT22;37054;52.054;8.600;2023-02-28T15:45:45;10.40;34.90
51029;DHT22;37054;52.054;8.600;2023-02-28T15:48:13;10.40;34.80
51029;DHT22;37054;52.054;8.600;2023-02-28T15:50:40;10.40;34.80
51029;DHT22;37054;52.054;8.600;2023-02-28T15:53:12;10.40;34.50
51029;DHT22;37054;52.054;8.600;2023-02-28T15:55:38;10.30;34.50
51029;DHT22;37054;52.054;8.600;2023-02-28T15:58:03;10.30;34.40
51029;DHT22;37054;52.054;8.600;2023-02-28T16:00:30;10.20;34.20
51029;DHT22;37054;52.054;8.600;2023-02-28T16:02:58;10.20;34.30
51029;DHT22;37054;52.054;8.600;2023-02-28T16:05:30;10.20;34.40
51029;DHT22;37054;52.054;8.600;2023-02-28T16:08:01;10.20;34.40
51029;DHT22;37054;52.054;8.600;2023-02-28T16:10:28;10.20;34.50
51029;DHT22;37054;52.054;8.600;2023-02-28T16:12:54;10.10;34.60
51029;DHT22;37054;52.054;8.600;2023-02-28T16:15:21;10.10;34.70
51029;DHT22;37054;52.054;8.600;2023-02-28T16:17:47;10.10;34.90
51029;DHT22;37054;52.054;8.600;2023-02-28T16:22:39;10.00;35.10
51029;DHT22;37054;52.054;8.600;2023-02-28T16:25:11;10.00;35.20
51029;DHT22;37054;52.054;8.600;2023-02-28T16:27:36;9.90;35.20
51029;DHT22;37054;52.054;8.600;2023-02-28T16:30:03;9.90;35.30
51029;DHT22;37054;52.054;8.600;2023-02-28T16:32:29;9.80;35.50
51029;DHT22;37054;52.054;8.600;2023-02-28T16:34:55;9.80;35.60
51029;DHT22;37054;52.054;8.600;2023-02-28T16:37:21;9.70;35.70
51029;DHT22;37054;52.054;8.600;2023-02-28T16:39:47;9.70;35.90
51029;DHT22;37054;52.054;8.600;2023-02-28T16:42:16;9.70;36.00
51029;DHT22;37054;52.054;8.600;2023-02-28T16:44:43;9.60;36.10
51029;DHT22;37054;52.054;8.600;2023-02-28T16:47:09;9.50;36.30
51029;DHT22;37054;52.054;8.600;2023-02-28T16:49:35;9.50;36.40
51029;DHT22;37054;52.054;8.600;2023-02-28T16:52:10;9.40;36.60
51029;DHT22;37054;52.054;8.600;2023-02-28T16:54:37;9.40;36.70
51029;DHT22;37054;52.054;8.600;2023-02-28T16:57:03;9.30;36.80
51029;DHT22;37054;52.054;8.600;2023-02-28T16:59:29;9.20;36.90
51029;DHT22;37054;52.054;8.600;2023-02-28T17:01:55;9.20;37.00
51029;DHT22;37054;52.054;8.600;2023-02-28T17:04:25;9.10;37.10
51029;DHT22;37054;52.054;8.600;2023-02-28T17:23:33;8.60;38.00
51029;DHT22;37054;52.054;8.600;2023-02-28T17:37:58;8.10;38.70
51029;DHT22;37054;52.054;8.600;2023-02-28T17:46:49;7.80;39.20
51029;DHT22;37054;52.054;8.600;2023-02-28T17:52:18;7.80;39.40
51029;DHT22;37054;52.054;8.600;2023-02-28T18:49:29;6.20;42.40
51029;DHT22;37054;52.054;8.600;2023-02-28T19:06:00;5.70;42.20
51029;DHT22;37054;52.054;8.600;2023-02-28T19:11:38;5.50;42.30
51029;DHT22;37054;52.054;8.600;2023-02-28T19:14:07;5.40;42.30
51029;DHT22;37054;52.054;8.600;2023-02-28T19:17:10;5.40;42.40
51029;DHT22;37054;52.054;8.600;2023-02-28T19:20:00;5.30;42.80
51029;DHT22;37054;52.054;8.600;2023-02-28T19:25:30;5.20;43.10
51029;DHT22;37054;52.054;8.600;2023-02-28T19:28:16;5.20;43.30
51029;DHT22;37054;52.054;8.600;2023-02-28T19:36:37;5.00;43.10
51029;DHT22;37054;52.054;8.600;2023-02-28T19:53:39;4.60;43.20
51029;DHT22;37054;52.054;8.600;2023-02-28T19:56:31;4.50;43.20
51029;DHT22;37054;52.054;8.600;2023-02-28T19:59:13;4.50;43.30
51029;DHT22;37054;52.054;8.600;2023-02-28T20:02:04;4.50;43.40
51029;DHT22;37054;52.054;8.600;2023-02-28T20:04:49;4.40;43.60
51029;DHT22;37054;52.054;8.600;2023-02-28T20:36:04;4.00;44.50
51029;DHT22;37054;52.054;8.600;2023-02-28T20:41:26;3.80;44.40
51029;DHT22;37054;52.054;8.600;2023-02-28T20:43:58;3.70;44.50
51029;DHT22;37054;52.054;8.600;2023-02-28T20:46:29;3.60;44.60
51029;DHT22;37054;52.054;8.600;2023-02-28T20:48:55;3.60;44.70